Time;durP1;ratioP1;P1;durP2;ratioP2;P2;SDS_P1;SDS_P2;PMS_P1;PMS_P2;Temp;Humidity;BMP_temperature;BMP_pressure;BME280_temperature;BME280_humidity;BME280_pressure;Samples;Min_cycle;Max_cycle;Signal;HPM_P1;HPM_P2
2024/01/12 00:02:21;;;;;;;;;15.50;15.50;;;;;-144.24;100.00;114865.94;5075652;28;64146;-70
2024/01/12 00:04:47;;;;;;;;;23.25;17.50;;;;;-144.24;100.00;114865.94;5057309;28;71345;-69
2024/01/12 00:07:12;;;;;;;;;21.50;13.75;;;;;-144.24;100.00;114865.94;5075866;28;58552;-70
2024/01/12 00:09:38;;;;;;;;;16.50;10.75;;;;;-144.24;100.00;114865.94;5076066;28;45352;-73
2024/01/12 00:12:03;;;;;;;;;18.25;14.00;;;;;-144.24;100.00;114865.94;5058792;28;53772;-70
2024/01/12 00:14:29;;;;;;;;;20.25;19.00;;;;;-144.24;100.00;114865.94;5076557;28;45781;-73
2024/01/12 00:16:54;;;;;;;;;23.50;17.00;;;;;-144.24;100.00;114865.94;5057492;28;66687;-70
2024/01/12 00:19:20;;;;;;;;;28.50;17.00;;;;;-144.24;100.00;114865.94;5077072;28;45837;-71
2024/01/12 00:21:46;;;;;;;;;19.50;17.00;;;;;-144.24;100.00;114865.94;5076127;28;45439;-70
2024/01/12 00:24:11;;;;;;;;;20.25;16.50;;;;;-144.24;100.00;114865.94;5058581;28;46397;-70
2024/01/12 00:26:36;;;;;;;;;26.50;20.00;;;;;-144.24;100.00;114865.94;5075552;28;56184;-71
2024/01/12 00:29:02;;;;;;;;;19.00;16.00;;;;;-144.24;100.00;114865.94;5075735;28;64742;-73
2024/01/12 00:31:27;;;;;;;;;19.00;16.25;;;;;-144.24;100.00;114865.94;5076105;28;63440;-70
2024/01/12 00:33:53;;;;;;;;;19.75;16.50;;;;;-144.24;100.00;114865.94;5057470;28;46393;-74
2024/01/12 00:36:18;;;;;;;;;15.50;13.75;;;;;-144.24;100.00;114865.94;5055709;28;46015;-72
2024/01/12 00:38:43;;;;;;;;;16.75;14.00;;;;;-144.24;100.00;114865.94;5076341;28;45475;-70
2024/01/12 00:41:09;;;;;;;;;23.00;14.00;;;;;-144.24;100.00;114865.94;5075086;28;64208;-70
2024/01/12 00:43:34;;;;;;;;;12.50;4.50;;;;;-144.24;100.00;114865.94;5071989;28;73884;-70
2024/01/12 00:46:02;;;;;;;;;19.25;16.25;;;;;-144.24;100.00;114865.94;5075127;28;67888;-73
2024/01/12 00:48:27;;;;;;;;;14.50;13.75;;;;;-144.24;100.00;114865.94;5073809;28;45505;-71
2024/01/12 00:50:52;;;;;;;;;21.25;17.75;;;;;-144.24;100.00;114865.94;5075024;28;63003;-70
2024/01/12 00:53:18;;;;;;;;;17.00;17.00;;;;;-144.24;100.00;114865.94;5075884;28;46701;-70
2024/01/12 00:55:44;;;;;;;;;28.25;20.50;;;;;-144.24;100.00;114865.94;5075694;28;45482;-70
2024/01/12 00:58:09;;;;;;;;;16.50;16.00;;;;;-144.24;100.00;114865.94;5075160;28;59827;-71
2024/01/12 01:00:34;;;;;;;;;21.00;16.50;;;;;-144.24;100.00;114865.94;5057491;28;45473;-70
2024/01/12 01:03:02;;;;;;;;;21.75;13.50;;;;;-144.24;100.00;114865.94;5073764;28;72972;-73
2024/01/12 01:05:27;;;;;;;;;25.75;17.25;;;;;-144.24;100.00;114865.94;5075892;28;45360;-70
2024/01/12 01:07:52;;;;;;;;;20.25;19.00;;;;;-144.24;100.00;114865.94;5076489;28;45397;-70
2024/01/12 01:10:18;;;;;;;;;23.75;15.00;;;;;-144.24;100.00;114865.94;5070967;28;63982;-71
2024/01/12 01:12:43;;;;;;;;;27.50;21.50;;;;;-144.24;100.00;114865.94;5073725;27;70713;-70
2024/01/12 01:15:11;;;;;;;;;17.75;14.25;;;;;-144.24;100.00;114865.94;5073436;28;69157;-71
2024/01/12 01:17:36;;;;;;;;;24.25;18.75;;;;;-144.24;100.00;114865.94;5056849;28;45373;-70
2024/01/12 01:20:02;;;;;;;;;22.00;15.00;;;;;-144.24;100.00;114865.94;5075056;28;45389;-72
2024/01/12 01:22:29;;;;;;;;;14.25;13.00;;;;;-144.24;100.00;114865.94;5074219;28;46199;-69
2024/01/12 01:24:54;;;;;;;;;13.25;11.50;;;;;-144.24;100.00;114865.94;5069611;28;45599;-69
2024/01/12 01:27:20;;;;;;;;;15.00;11.00;;;;;-144.24;100.00;114865.94;5074200;28;65690;-74
2024/01/12 01:29:45;;;;;;;;;14.00;11.00;;;;;-144.24;100.00;114865.94;5074843;28;65493;-71
2024/01/12 01:32:10;;;;;;;;;14.25;11.00;;;;;-144.24;100.00;114865.94;5074427;28;68466;-71
2024/01/12 01:34:36;;;;;;;;;13.75;8.00;;;;;-144.24;100.00;114865.94;5074605;28;66829;-74
2024/01/12 01:37:03;;;;;;;;;15.50;9.75;;;;;-144.24;100.00;114865.94;5074354;28;63237;-70
2024/01/12 01:39:28;;;;;;;;;13.75;10.50;;;;;-144.24;100.00;114865.94;5075486;28;46267;-70
2024/01/12 01:41:53;;;;;;;;;14.50;8.75;;;;;-144.24;100.00;114865.94;5072254;28;63196;-73
2024/01/12 01:44:20;;;;;;;;;17.25;10.25;;;;;-144.24;100.00;114865.94;5056521;28;66181;-70
2024/01/12 01:46:45;;;;;;;;;8.00;7.25;;;;;-144.24;100.00;114865.94;5075535;28;45354;-69
2024/01/12 01:49:11;;;;;;;;;14.25;11.50;;;;;-144.24;100.00;114865.94;5056475;28;55578;-73
2024/01/12 01:51:36;;;;;;;;;9.75;8.75;;;;;-144.24;100.00;114865.94;5054026;28;64637;-72
2024/01/12 01:54:02;;;;;;;;;11.00;7.00;;;;;-144.24;100.00;114865.94;5055641;28;67879;-70
2024/01/12 01:56:27;;;;;;;;;11.00;9.75;;;;;-144.24;100.00;114865.94;5074709;28;45429;-71
2024/01/12 01:58:53;;;;;;;;;8.25;7.50;;;;;-144.24;100.00;114865.94;5056632;28;63921;-70
2024/01/12 02:01:19;;;;;;;;;11.00;7.00;;;;;-144.24;100.00;114865.94;5055531;28;45882;-70
2024/01/12 02:03:45;;;;;;;;;10.00;7.25;;;;;-144.24;100.00;114865.94;5056409;28;48866;-70
2024/01/12 02:06:11;;;;;;;;;11.50;10.00;;;;;-144.24;100.00;114865.94;5056100;28;47968;-70
2024/01/12 02:08:38;;;;;;;;;14.75;11.00;;;;;-144.24;100.00;114865.94;5056478;28;46431;-70
2024/01/12 02:11:04;;;;;;;;;9.75;8.00;;;;;-144.24;100.00;114865.94;5059530;28;46447;-70
2024/01/12 02:13:29;;;;;;;;;8.00;8.00;;;;;-144.24;100.00;114865.94;5056885;28;45268;-70
2024/01/12 02:15:55;;;;;;;;;12.25;7.75;;;;;-144.24;100.00;114865.94;5074234;28;64462;-70
2024/01/12 02:18:20;;;;;;;;;19.00;8.00;;;;;-144.24;100.00;114865.94;5056267;28;57297;-74
2024/01/12 02:20:47;;;;;;;;;12.75;9.50;;;;;-144.24;100.00;114865.94;5055620;28;72575;-70
2024/01/12 02:23:14;;;;;;;;;11.25;8.25;;;;;-144.24;100.00;114865.94;5074475;28;45405;-70
2024/01/12 02:25:39;;;;;;;;;16.50;9.25;;;;;-144.24;100.00;114865.94;5054958;28;45416;-70
2024/01/12 02:28:05;;;;;;;;;9.00;8.25;;;;;-144.24;100.00;114865.94;5073276;27;45565;-70
2024/01/12 02:30:30;;;;;;;;;9.50;7.25;;;;;-144.24;100.00;114865.94;5073794;28;70856;-74
2024/01/12 02:32:56;;;;;;;;;6.75;5.00;;;;;-144.24;100.00;114865.94;5073463;28;67483;-72
2024/01/12 02:35:21;;;;;;;;;10.25;8.00;;;;;-144.24;100.00;114865.94;5074296;28;62992;-71
2024/01/12 02:37:46;;;;;;;;;12.00;11.25;;;;;-144.24;100.00;114865.94;5072486;28;59349;-69
2024/01/12 02:40:12;;;;;;;;;11.75;8.50;;;;;-144.24;100.00;114865.94;5059268;28;60289;-73
2024/01/12 02:42:37;;;;;;;;;8.75;8.75;;;;;-144.24;100.00;114865.94;5074528;28;46884;-73
2024/01/12 02:45:03;;;;;;;;;12.75;11.25;;;;;-144.24;100.00;114865.94;5076799;28;68305;-72
2024/01/12 02:47:28;;;;;;;;;12.00;7.50;;;;;-144.24;100.00;114865.94;5078809;28;45669;-70
2024/01/12 02:49:53;;;;;;;;;14.25;11.50;;;;;-144.24;100.00;114865.94;5076761;28;67814;-71
2024/01/12 02:52:19;;;;;;;;;15.25;13.00;;;;;-144.24;100.00;114865.94;5077792;28;45244;-71
2024/01/12 02:54:44;;;;;;;;;16.00;12.00;;;;;-144.24;100.00;114865.94;5077336;28;45314;-73
2024/01/12 02:57:09;;;;;;;;;12.75;12.00;;;;;-144.24;100.00;114865.94;5077688;28;59478;-69
2024/01/12 02:59:35;;;;;;;;;10.00;9.25;;;;;-144.24;100.00;114865.94;5076734;28;58418;-73
2024/01/12 03:02:00;;;;;;;;;13.75;4.50;;;;;-144.24;100.00;114865.94;5077867;28;45357;-71
2024/01/12 03:04:25;;;;;;;;;15.00;11.75;;;;;-144.24;100.00;114865.94;5077738;28;45528;-70
2024/01/12 03:06:51;;;;;;;;;13.75;9.50;;;;;-144.24;100.00;114865.94;5059135;28;59104;-70
2024/01/12 03:09:16;;;;;;;;;12.75;10.50;;;;;-144.24;100.00;114865.94;5076273;28;72159;-75
2024/01/12 03:11:41;;;;;;;;;19.00;15.00;;;;;-144.24;100.00;114865.94;5059143;27;67006;-70
2024/01/12 03:14:06;;;;;;;;;16.75;15.25;;;;;-144.24;100.00;114865.94;5076845;28;66661;-70
2024/01/12 03:16:32;;;;;;;;;17.50;14.00;;;;;-144.24;100.00;114865.94;5077539;27;64643;-70
2024/01/12 03:18:57;;;;;;;;;25.50;15.75;;;;;-144.24;100.00;114865.94;5075454;28;74720;-71
2024/01/12 03:21:22;;;;;;;;;16.25;14.00;;;;;-144.24;100.00;114865.94;5057775;28;72590;-70
2024/01/12 03:23:48;;;;;;;;;17.50;14.50;;;;;-144.24;100.00;114865.94;5076176;28;64462;-73
2024/01/12 03:26:13;;;;;;;;;23.50;15.25;;;;;-144.24;100.00;114865.94;5076546;28;59099;-70
2024/01/12 03:28:39;;;;;;;;;18.75;15.25;;;;;-144.24;100.00;114865.94;5076269;28;71297;-70
2024/01/12 03:31:05;;;;;;;;;18.25;18.00;;;;;-144.24;100.00;114865.94;5075495;28;69583;-70
2024/01/12 03:33:30;;;;;;;;;18.75;15.50;;;;;-144.24;100.00;114865.94;5077511;28;45595;-70
2024/01/12 03:35:55;;;;;;;;;20.75;13.75;;;;;-144.24;100.00;114865.94;5057146;28;58980;-71
2024/01/12 03:38:20;;;;;;;;;14.00;12.75;;;;;-144.24;100.00;114865.94;5056716;28;47224;-70
2024/01/12 03:40:47;;;;;;;;;20.00;16.50;;;;;-144.24;100.00;114865.94;5076209;28;63723;-71
2024/01/12 03:43:13;;;;;;;;;19.25;12.75;;;;;-144.24;100.00;114865.94;5057565;28;45530;-70
2024/01/12 03:45:38;;;;;;;;;19.00;17.50;;;;;-144.24;100.00;114865.94;5075538;28;65043;-70
2024/01/12 03:48:03;;;;;;;;;29.00;19.50;;;;;-144.24;100.00;114865.94;5075527;28;64914;-75
2024/01/12 03:50:29;;;;;;;;;15.50;15.25;;;;;-144.24;100.00;114865.94;5076702;28;45464;-70
2024/01/12 03:52:54;;;;;;;;;21.00;15.00;;;;;-144.24;100.00;114865.94;5057913;28;62901;-73
2024/01/12 03:55:19;;;;;;;;;21.00;15.50;;;;;-144.24;100.00;114865.94;5075084;28;64199;-74
2024/01/12 03:57:45;;;;;;;;;23.00;19.75;;;;;-144.24;100.00;114865.94;5057946;28;45836;-72
2024/01/12 04:00:11;;;;;;;;;21.50;16.00;;;;;-144.24;100.00;114865.94;5058415;28;70035;-71
2024/01/12 04:02:36;;;;;;;;;25.50;18.00;;;;;-144.24;100.00;114865.94;5076031;28;45510;-74
2024/01/12 04:05:03;;;;;;;;;22.50;17.50;;;;;-144.24;100.00;114865.94;5058004;28;62158;-70
2024/01/12 04:07:28;;;;;;;;;31.25;24.25;;;;;-144.24;100.00;114865.94;5075771;28;46725;-70
2024/01/12 04:09:54;;;;;;;;;25.50;18.00;;;;;-144.24;100.00;114865.94;5058149;28;45376;-72
2024/01/12 04:12:19;;;;;;;;;17.00;14.50;;;;;-144.24;100.00;114865.94;5058969;28;45539;-73
2024/01/12 04:14:48;;;;;;;;;24.00;18.75;;;;;-144.24;100.00;114865.94;5076395;28;45346;-70
2024/01/12 04:17:13;;;;;;;;;24.50;21.50;;;;;-144.24;100.00;114865.94;5054344;28;45558;-71
2024/01/12 04:19:39;;;;;;;;;22.75;16.50;;;;;-144.24;100.00;114865.94;5075965;28;53126;-70
2024/01/12 04:22:04;;;;;;;;;28.25;19.50;;;;;-144.24;100.00;114865.94;5058132;28;45527;-70
2024/01/12 04:24:30;;;;;;;;;25.75;18.75;;;;;-144.24;100.00;114865.94;5058647;28;45457;-70
2024/01/12 04:26:56;;;;;;;;;25.25;22.50;;;;;-144.24;100.00;114865.94;5057388;28;46680;-74
2024/01/12 04:29:21;;;;;;;;;22.75;20.00;;;;;-144.24;100.00;114865.94;5075197;28;63468;-70
2024/01/12 04:31:46;;;;;;;;;26.25;22.00;;;;;-144.24;100.00;114865.94;5074951;28;46058;-70
2024/01/12 04:34:12;;;;;;;;;29.50;24.00;;;;;-144.24;100.00;114865.94;5074577;28;66459;-70
2024/01/12 04:36:37;;;;;;;;;30.00;18.50;;;;;-144.24;100.00;114865.94;5056861;28;45857;-73
2024/01/12 04:39:03;;;;;;;;;23.00;19.50;;;;;-144.24;100.00;114865.94;5076095;28;45503;-70
2024/01/12 04:41:28;;;;;;;;;25.00;17.50;;;;;-144.24;100.00;114865.94;5056607;28;55446;-73
2024/01/12 04:43:53;;;;;;;;;19.00;16.00;;;;;-144.24;100.00;114865.94;5075007;28;65271;-70
2024/01/12 04:46:19;;;;;;;;;31.00;21.75;;;;;-144.24;100.00;114865.94;5056107;28;69535;-68
2024/01/12 04:48:44;;;;;;;;;26.00;19.75;;;;;-144.24;100.00;114865.94;5076394;28;46192;-72
2024/01/12 04:51:09;;;;;;;;;27.25;21.75;;;;;-144.24;100.00;114865.94;5075917;28;45519;-74
2024/01/12 04:53:35;;;;;;;;;31.75;24.75;;;;;-144.24;100.00;114865.94;5057833;28;49318;-74
2024/01/12 04:56:00;;;;;;;;;29.25;20.75;;;;;-144.24;100.00;114865.94;5056150;28;72597;-70
2024/01/12 04:58:25;;;;;;;;;30.50;17.75;;;;;-144.24;100.00;114865.94;5051538;28;45360;-69
2024/01/12 05:00:51;;;;;;;;;28.50;22.50;;;;;-144.24;100.00;114865.94;5075972;28;45477;-70
2024/01/12 05:03:16;;;;;;;;;21.00;15.75;;;;;-144.24;100.00;114865.94;5056795;28;62244;-72
2024/01/12 05:05:41;;;;;;;;;21.75;19.50;;;;;-144.24;100.00;114865.94;5074601;27;68693;-73
2024/01/12 05:08:07;;;;;;;;;25.75;19.50;;;;;-144.24;100.00;114865.94;5074678;28;68126;-72
2024/01/12 05:10:32;;;;;;;;;28.50;20.50;;;;;-144.24;100.00;114865.94;5074925;28;65466;-75
2024/01/12 05:12:58;;;;;;;;;25.75;18.50;;;;;-144.24;100.00;114865.94;5079909;27;64151;-70
2024/01/12 05:15:23;;;;;;;;;20.75;18.25;;;;;-144.24;100.00;114865.94;5056934;28;50201;-71
2024/01/12 05:17:48;;;;;;;;;23.00;18.75;;;;;-144.24;100.00;114865.94;5075213;28;68829;-70
2024/01/12 05:20:13;;;;;;;;;26.75;19.25;;;;;-144.24;100.00;114865.94;5074325;28;63984;-70
2024/01/12 05:22:39;;;;;;;;;31.50;25.25;;;;;-144.24;100.00;114865.94;5056889;28;61031;-74
2024/01/12 05:25:05;;;;;;;;;19.75;16.75;;;;;-144.24;100.00;114865.94;5075648;28;45799;-70
2024/01/12 05:27:30;;;;;;;;;25.75;20.75;;;;;-144.24;100.00;114865.94;5057473;28;45500;-70
2024/01/12 05:29:56;;;;;;;;;20.00;15.00;;;;;-144.24;100.00;114865.94;5075413;28;45372;-73
2024/01/12 05:32:21;;;;;;;;;26.00;18.25;;;;;-144.24;100.00;114865.94;5057351;28;45362;-73
2024/01/12 05:34:46;;;;;;;;;24.75;20.25;;;;;-144.24;100.00;114865.94;5068903;28;46814;-71
2024/01/12 05:37:11;;;;;;;;;25.00;17.00;;;;;-144.24;100.00;114865.94;5074867;28;61177;-72
2024/01/12 05:39:37;;;;;;;;;19.50;17.50;;;;;-144.24;100.00;114865.94;5073783;28;61852;-70
2024/01/12 05:42:02;;;;;;;;;21.25;16.50;;;;;-144.24;100.00;114865.94;5056168;28;50739;-74
2024/01/12 05:44:28;;;;;;;;;30.75;20.75;;;;;-144.24;100.00;114865.94;5075397;28;46175;-72
2024/01/12 05:46:53;;;;;;;;;23.50;15.25;;;;;-144.24;100.00;114865.94;5074397;28;45322;-70
2024/01/12 05:49:18;;;;;;;;;24.25;18.50;;;;;-144.24;100.00;114865.94;5055617;28;61004;-70
2024/01/12 05:51:46;;;;;;;;;30.50;23.00;;;;;-144.24;100.00;114865.94;5073934;28;54650;-71
2024/01/12 05:54:11;;;;;;;;;26.00;19.25;;;;;-144.24;100.00;114865.94;5056135;28;47666;-72
2024/01/12 05:56:36;;;;;;;;;24.25;16.50;;;;;-144.24;100.00;114865.94;5074557;28;45475;-70
2024/01/12 05:59:02;;;;;;;;;20.00;20.00;;;;;-144.24;100.00;114865.94;5073787;28;62514;-70
2024/01/12 06:01:28;;;;;;;;;27.75;23.50;;;;;-144.24;100.00;114865.94;5075281;28;45515;-74
2024/01/12 06:03:53;;;;;;;;;27.00;19.00;;;;;-144.24;100.00;114865.94;5056521;28;47703;-70
2024/01/12 06:06:18;;;;;;;;;27.75;21.00;;;;;-144.24;100.00;114865.94;5068551;28;45441;-70
2024/01/12 06:08:44;;;;;;;;;25.75;21.50;;;;;-144.24;100.00;114865.94;5056158;28;45377;-71
2024/01/12 06:11:09;;;;;;;;;20.00;13.00;;;;;-144.24;100.00;114865.94;5073813;28;59003;-70
2024/01/12 06:13:34;;;;;;;;;20.50;15.50;;;;;-144.24;100.00;114865.94;5079252;27;46867;-72
2024/01/12 06:16:00;;;;;;;;;24.75;18.50;;;;;-144.24;100.00;114865.94;5073371;28;68815;-70
2024/01/12 06:18:25;;;;;;;;;27.50;21.75;;;;;-144.24;100.00;114865.94;5056437;28;61444;-73
2024/01/12 06:20:50;;;;;;;;;22.00;19.25;;;;;-144.24;100.00;114865.94;5076978;28;47835;-70
2024/01/12 06:23:16;;;;;;;;;27.50;20.50;;;;;-144.24;100.00;114865.94;5077650;28;45424;-71
2024/01/12 06:25:41;;;;;;;;;31.00;23.00;;;;;-144.24;100.00;114865.94;5076322;28;65375;-70
2024/01/12 06:28:07;;;;;;;;;30.50;20.25;;;;;-144.24;100.00;114865.94;5058310;28;48102;-73
2024/01/12 06:30:32;;;;;;;;;26.75;20.00;;;;;-144.24;100.00;114865.94;5075757;28;45424;-70
2024/01/12 06:32:58;;;;;;;;;24.25;19.75;;;;;-144.24;100.00;114865.94;5076688;28;46810;-70
2024/01/12 06:35:24;;;;;;;;;28.50;23.25;;;;;-144.24;100.00;114865.94;5059474;28;45586;-71
2024/01/12 06:37:49;;;;;;;;;19.00;18.50;;;;;-144.24;100.00;114865.94;5059588;28;45504;-72
2024/01/12 06:40:15;;;;;;;;;29.25;21.75;;;;;-144.24;100.00;114865.94;5077621;28;45896;-70
2024/01/12 06:42:41;;;;;;;;;28.75;23.25;;;;;-144.24;100.00;114865.94;5077781;28;45890;-70
2024/01/12 06:45:08;;;;;;;;;26.50;20.25;;;;;-144.24;100.00;114865.94;5059787;28;45563;-70
2024/01/12 06:47:34;;;;;;;;;26.50;21.75;;;;;-144.24;100.00;114865.94;5058819;28;45463;-70
2024/01/12 06:50:00;;;;;;;;;19.50;13.75;;;;;-144.24;100.00;114865.94;5059417;28;45733;-73
2024/01/12 06:52:26;;;;;;;;;33.50;23.25;;;;;-144.24;100.00;114865.94;5071271;28;45922;-70
2024/01/12 06:54:51;;;;;;;;;33.00;25.50;;;;;-144.24;100.00;114865.94;5075133;28;70287;-72
2024/01/12 06:57:16;;;;;;;;;33.75;26.50;;;;;-144.24;100.00;114865.94;5077244;28;64795;-73
2024/01/12 06:59:42;;;;;;;;;41.50;29.50;;;;;-144.24;100.00;114865.94;5077209;28;45480;-70
2024/01/12 07:02:07;;;;;;;;;34.25;26.50;;;;;-144.24;100.00;114865.94;5076279;28;73284;-70
2024/01/12 07:04:33;;;;;;;;;27.75;24.00;;;;;-144.24;100.00;114865.94;5058979;28;45436;-70
2024/01/12 07:06:58;;;;;;;;;42.00;30.00;;;;;-144.24;100.00;114865.94;5054845;28;64374;-71
2024/01/12 07:09:23;;;;;;;;;46.00;29.50;;;;;-144.24;100.00;114865.94;5057587;28;66247;-71
2024/01/12 07:11:49;;;;;;;;;31.50;27.00;;;;;-144.24;100.00;114865.94;5074119;28;69379;-72
2024/01/12 07:14:14;;;;;;;;;36.00;27.75;;;;;-144.24;100.00;114865.94;5076808;28;45536;-72
2024/01/12 07:16:40;;;;;;;;;41.25;31.00;;;;;-144.24;100.00;114865.94;5074469;27;45436;-73
2024/01/12 07:19:06;;;;;;;;;43.50;29.00;;;;;-144.24;100.00;114865.94;5076938;28;45384;-72
2024/01/12 07:21:32;;;;;;;;;42.25;29.00;;;;;-144.24;100.00;114865.94;5058391;28;46653;-71
2024/01/12 07:23:58;;;;;;;;;32.75;24.75;;;;;-144.24;100.00;114865.94;5073521;28;45453;-70
2024/01/12 07:26:23;;;;;;;;;33.00;27.50;;;;;-144.24;100.00;114865.94;5070500;28;45852;-70
2024/01/12 07:28:49;;;;;;;;;42.25;31.50;;;;;-144.24;100.00;114865.94;5068572;27;57798;-70
2024/01/12 07:31:14;;;;;;;;;36.25;24.25;;;;;-144.24;100.00;114865.94;5056334;28;46639;-69
2024/01/12 07:33:39;;;;;;;;;31.25;29.75;;;;;-144.24;100.00;114865.94;5070611;27;56064;-70
2024/01/12 07:36:05;;;;;;;;;34.25;26.50;;;;;-144.24;100.00;114865.94;5075443;28;53909;-69
2024/01/12 07:38:30;;;;;;;;;39.25;31.75;;;;;-144.24;100.00;114865.94;5053361;28;45563;-70
2024/01/12 07:40:56;;;;;;;;;34.75;27.25;;;;;-144.24;100.00;114865.94;5055150;27;45682;-68
2024/01/12 07:43:21;;;;;;;;;34.25;29.50;;;;;-144.24;100.00;114865.94;5036244;27;68368;-70
2024/01/12 07:45:47;;;;;;;;;31.00;28.00;;;;;-144.24;100.00;114865.94;5062049;27;57305;-69
2024/01/12 07:48:12;;;;;;;;;29.50;21.50;;;;;-144.24;100.00;114865.94;5078778;27;45477;-67
2024/01/12 07:50:37;;;;;;;;;22.50;21.25;;;;;-144.24;100.00;114865.94;5056773;28;65114;-69
2024/01/12 07:53:04;;;;;;;;;27.75;20.00;;;;;-144.24;100.00;114865.94;5072561;28;45768;-70
2024/01/12 07:55:29;;;;;;;;;33.00;23.50;;;;;-144.24;100.00;114865.94;5054290;28;45541;-68
2024/01/12 07:57:55;;;;;;;;;29.75;19.00;;;;;-144.24;100.00;114865.94;5071293;28;45694;-67
2024/01/12 08:00:21;;;;;;;;;32.25;22.00;;;;;-144.24;100.00;114865.94;5065271;28;45814;-68
2024/01/12 08:02:46;;;;;;;;;29.50;19.75;;;;;-144.24;100.00;114865.94;5051661;28;45829;-68
2024/01/12 08:05:12;;;;;;;;;34.50;23.00;;;;;-144.24;100.00;114865.94;5071053;28;62719;-69
2024/01/12 08:07:37;;;;;;;;;27.50;24.25;;;;;-144.24;100.00;114865.94;5073835;28;45532;-69
2024/01/12 08:10:04;;;;;;;;;30.00;23.00;;;;;-144.24;100.00;114865.94;5074219;28;45533;-73
2024/01/12 08:12:29;;;;;;;;;26.00;22.50;;;;;-144.24;100.00;114865.94;5056761;28;45617;-69
2024/01/12 08:14:55;;;;;;;;;26.75;20.00;;;;;-144.24;100.00;114865.94;5064200;27;45748;-68
2024/01/12 08:17:20;;;;;;;;;29.00;20.25;;;;;-144.24;100.00;114865.94;5071992;27;45686;-69
2024/01/12 08:19:47;;;;;;;;;30.75;23.00;;;;;-144.24;100.00;114865.94;5055990;27;45682;-72
2024/01/12 08:22:12;;;;;;;;;33.25;24.25;;;;;-144.24;100.00;114865.94;5066855;27;45933;-69
2024/01/12 08:24:38;;;;;;;;;32.25;24.75;;;;;-144.24;100.00;114865.94;5071941;28;45493;-70
2024/01/12 08:27:03;;;;;;;;;33.50;28.75;;;;;-144.24;100.00;114865.94;5069445;27;45453;-70
2024/01/12 08:29:28;;;;;;;;;27.75;17.25;;;;;-144.24;100.00;114865.94;5054080;28;46567;-68
2024/01/12 08:31:54;;;;;;;;;32.50;24.50;;;;;-144.24;100.00;114865.94;5053341;28;45697;-69
2024/01/12 08:34:19;;;;;;;;;28.00;23.00;;;;;-144.24;100.00;114865.94;5069654;28;61579;-68
2024/01/12 08:36:45;;;;;;;;;29.25;22.75;;;;;-144.24;100.00;114865.94;5051922;28;45669;-69
2024/01/12 08:39:10;;;;;;;;;25.50;22.50;;;;;-144.24;100.00;114865.94;5050653;28;45745;-72
2024/01/12 08:41:36;;;;;;;;;23.00;17.75;;;;;-144.24;100.00;114865.94;5049048;28;68607;-69
2024/01/12 08:44:01;;;;;;;;;24.25;19.50;;;;;-144.24;100.00;114865.94;5052319;28;45629;-70
2024/01/12 08:46:26;;;;;;;;;24.25;17.25;;;;;-144.24;100.00;114865.94;5035741;28;45624;-69
2024/01/12 08:48:54;;;;;;;;;24.25;17.00;;;;;-144.24;100.00;114865.94;5051299;28;45718;-69
2024/01/12 08:51:20;;;;;;;;;26.00;20.75;;;;;-144.24;100.00;114865.94;5051913;28;45499;-68
2024/01/12 08:53:45;;;;;;;;;28.75;16.75;;;;;-144.24;100.00;114865.94;5053758;28;46152;-72
2024/01/12 08:56:11;;;;;;;;;21.75;18.25;;;;;-144.24;100.00;114865.94;5051755;28;45443;-69
2024/01/12 08:58:37;;;;;;;;;25.00;17.00;;;;;-144.24;100.00;114865.94;5046598;28;56308;-69
2024/01/12 09:01:03;;;;;;;;;25.25;18.00;;;;;-144.24;100.00;114865.94;5051376;28;45455;-71
2024/01/12 09:03:28;;;;;;;;;26.25;22.00;;;;;-144.24;100.00;114865.94;5051021;28;45397;-72
2024/01/12 09:05:54;;;;;;;;;32.25;18.25;;;;;-144.24;100.00;114865.94;5053815;28;55613;-70
2024/01/12 09:08:19;;;;;;;;;27.00;20.50;;;;;-144.24;100.00;114865.94;5051453;28;61363;-70
2024/01/12 09:10:44;;;;;;;;;24.00;21.00;;;;;-144.24;100.00;114865.94;5045278;28;65652;-70
2024/01/12 09:13:10;;;;;;;;;27.75;21.75;;;;;-144.24;100.00;114865.94;5050585;28;45434;-70
2024/01/12 09:15:35;;;;;;;;;20.50;13.00;;;;;-144.24;100.00;114865.94;5046660;28;48504;-73
2024/01/12 09:18:00;;;;;;;;;27.25;21.25;;;;;-144.24;100.00;114865.94;5047566;28;71080;-72
2024/01/12 09:20:26;;;;;;;;;24.75;18.50;;;;;-144.24;100.00;114865.94;5048009;28;67091;-69
2024/01/12 09:22:51;;;;;;;;;29.50;22.50;;;;;-144.24;100.00;114865.94;5050602;28;60332;-70
2024/01/12 09:25:16;;;;;;;;;42.75;35.25;;;;;-144.24;100.00;114865.94;5049526;28;60109;-72
2024/01/12 09:27:42;;;;;;;;;51.50;38.50;;;;;-144.24;100.00;114865.94;5047699;28;68775;-69
2024/01/12 09:30:07;;;;;;;;;69.25;48.75;;;;;-144.24;100.00;114865.94;5044838;28;45838;-70
2024/01/12 09:32:33;;;;;;;;;30.50;26.75;;;;;-144.24;100.00;114865.94;5048817;28;45404;-69
2024/01/12 09:34:58;;;;;;;;;58.75;44.00;;;;;-144.24;100.00;114865.94;5046331;28;54561;-72
2024/01/12 09:37:23;;;;;;;;;99.50;75.75;;;;;-144.24;100.00;114865.94;5046585;28;64481;-69
2024/01/12 09:39:49;;;;;;;;;35.25;33.50;;;;;-144.24;100.00;114865.94;5194477;22;58201;-73
2024/01/12 09:42:15;;;;;;;;;34.00;23.25;;;;;-144.24;100.00;114865.94;5050875;28;46190;-71
2024/01/12 09:44:47;;;;;;;;;38.75;33.00;;;;;-144.24;100.00;114865.94;5059290;27;45612;-71
2024/01/12 09:47:12;;;;;;;;;37.25;26.50;;;;;-144.24;100.00;114865.94;5051446;28;46000;-69
2024/01/12 09:49:38;;;;;;;;;35.00;30.00;;;;;-144.24;100.00;114865.94;5047493;28;69576;-72
2024/01/12 09:52:04;;;;;;;;;26.75;24.00;;;;;-144.24;100.00;114865.94;5050123;28;46349;-69
2024/01/12 09:54:29;;;;;;;;;62.00;46.25;;;;;-144.24;100.00;114865.94;5055703;28;45552;-68
2024/01/12 09:56:58;;;;;;;;;37.75;29.50;;;;;-144.24;100.00;114865.94;5055597;28;47916;-73
2024/01/12 09:59:25;;;;;;;;;41.50;29.75;;;;;-144.24;100.00;114865.94;5054721;28;45431;-68
2024/01/12 10:01:50;;;;;;;;;52.25;40.00;;;;;-144.24;100.00;114865.94;5050403;28;45763;-70
2024/01/12 10:04:15;;;;;;;;;32.50;28.25;;;;;-144.24;100.00;114865.94;5053145;28;45522;-70
2024/01/12 10:06:41;;;;;;;;;44.50;38.00;;;;;-144.24;100.00;114865.94;5054671;28;74670;-72
2024/01/12 10:09:07;;;;;;;;;45.25;30.00;;;;;-144.24;100.00;114865.94;5051418;28;65844;-69
2024/01/12 10:11:33;;;;;;;;;28.75;28.00;;;;;-144.24;100.00;114865.94;5060310;28;45428;-69
2024/01/12 10:13:58;;;;;;;;;30.25;25.75;;;;;-144.24;100.00;114865.94;5055947;28;45500;-68
2024/01/12 10:16:28;;;;;;;;;45.75;31.00;;;;;-144.24;100.00;114865.94;5058861;28;69649;-69
2024/01/12 10:18:58;;;;;;;;;38.25;29.25;;;;;-144.24;100.00;114865.94;5054044;28;45510;-69
2024/01/12 10:21:24;;;;;;;;;42.50;35.50;;;;;-144.24;100.00;114865.94;5052258;28;45482;-72
2024/01/12 10:23:51;;;;;;;;;34.00;26.00;;;;;-144.24;100.00;114865.94;5053557;28;46040;-69
2024/01/12 10:26:16;;;;;;;;;42.75;37.75;;;;;-144.24;100.00;114865.94;5054834;28;45928;-72
2024/01/12 10:28:42;;;;;;;;;40.25;34.25;;;;;-144.24;100.00;114865.94;5055168;28;68508;-69
2024/01/12 10:31:07;;;;;;;;;44.75;37.00;;;;;-144.24;100.00;114865.94;5055989;28;45701;-72
2024/01/12 10:33:33;;;;;;;;;35.00;26.25;;;;;-144.24;100.00;114865.94;5054836;28;63161;-69
2024/01/12 10:36:05;;;;;;;;;37.75;31.25;;;;;-144.24;100.00;114865.94;5055238;28;45586;-69
2024/01/12 10:38:35;;;;;;;;;45.25;33.00;;;;;-144.24;100.00;114865.94;5055365;28;45415;-68
2024/01/12 10:41:01;;;;;;;;;38.75;29.00;;;;;-144.24;100.00;114865.94;5063477;27;45479;-70